Time;durP1;ratioP1;P1;durP2;ratioP2;P2;SDS_P1;SDS_P2;PMS_P1;PMS_P2;Temp;Humidity;BMP_temperature;BMP_pressure;BME280_temperature;BME280_humidity;BME280_pressure;Samples;Min_cycle;Max_cycle;Signal;HPM_P1;HPM_P2
2022/08/06 00:02:15;;;;;;;2.60;2.00;;;;;;;20.20;70.52;98687.66;5091520;28;20218;-67
2022/08/06 00:04:42;;;;;;;2.37;1.97;;;;;;;20.24;71.35;98691.69;5090658;28;20238;-67
2022/08/06 00:07:08;;;;;;;2.60;2.00;;;;;;;20.23;71.53;98684.66;5091571;28;20592;-67
2022/08/06 00:09:35;;;;;;;4.23;1.80;;;;;;;20.18;71.69;98684.25;5091652;28;20222;-67
2022/08/06 00:12:05;;;;;;;2.13;1.60;;;;;;;20.23;71.20;98683.81;5089981;28;20304;-70
2022/08/06 00:14:33;;;;;;;2.03;1.70;;;;;;;20.24;70.76;98690.88;5090287;28;20680;-68
2022/08/06 00:17:00;;;;;;;2.27;1.87;;;;;;;20.27;69.95;98691.41;5060991;28;20305;-68
2022/08/06 00:19:26;;;;;;;1.90;1.70;;;;;;;20.29;68.89;98697.47;5091340;28;20238;-70
2022/08/06 00:21:54;;;;;;;2.17;1.80;;;;;;;20.32;68.64;98688.25;5091204;28;20691;-68
2022/08/06 00:24:21;;;;;;;1.70;1.60;;;;;;;20.32;68.51;98686.44;5090695;28;20231;-68
2022/08/06 00:26:48;;;;;;;2.30;1.60;;;;;;;20.31;68.50;98694.63;5091144;28;20211;-67
2022/08/06 00:29:16;;;;;;;2.23;1.77;;;;;;;20.23;69.48;98689.19;5091579;28;20297;-68
2022/08/06 00:31:42;;;;;;;2.20;1.93;;;;;;;20.27;67.94;98693.25;5091452;28;20217;-68
2022/08/06 00:34:09;;;;;;;2.10;1.87;;;;;;;20.14;68.98;98695.47;5090430;28;20241;-68
2022/08/06 00:36:35;;;;;;;2.00;1.80;;;;;;;20.18;67.19;98700.38;5090765;28;20207;-68
2022/08/06 00:39:05;;;;;;;2.77;1.53;;;;;;;20.18;65.32;98700.38;5085823;28;20700;-67
2022/08/06 00:41:32;;;;;;;3.47;1.50;;;;;;;20.09;65.21;98698.59;5083956;28;20211;-68
2022/08/06 00:43:59;;;;;;;1.63;1.40;;;;;;;20.11;63.67;98699.28;5090374;28;20752;-67
2022/08/06 00:46:27;;;;;;;1.67;1.50;;;;;;;20.15;63.42;98698.00;5090312;28;20672;-68
2022/08/06 00:48:54;;;;;;;2.17;1.50;;;;;;;20.05;64.42;98697.19;5091039;28;20211;-67
2022/08/06 00:51:21;;;;;;;1.70;1.50;;;;;;;20.13;62.70;98701.81;5090949;28;20227;-69
2022/08/06 00:53:47;;;;;;;1.60;1.50;;;;;;;20.02;63.52;98697.50;5090951;28;20225;-67
2022/08/06 00:56:14;;;;;;;3.00;1.80;;;;;;;19.89;64.30;98697.00;5090389;28;20207;-69
2022/08/06 00:58:40;;;;;;;1.90;1.80;;;;;;;19.90;63.76;98706.75;5091204;28;20211;-68
2022/08/06 01:01:07;;;;;;;2.50;1.43;;;;;;;19.96;62.67;98708.84;5090842;28;20211;-67
2022/08/06 01:03:35;;;;;;;3.17;1.70;;;;;;;19.97;61.42;98715.88;5091055;28;20245;-68
2022/08/06 01:06:01;;;;;;;1.50;1.40;;;;;;;19.94;61.29;98716.16;5087319;28;20219;-70
2022/08/06 01:08:28;;;;;;;2.37;1.43;;;;;;;19.92;61.36;98707.44;5081364;28;20218;-67
2022/08/06 01:10:55;;;;;;;2.20;1.60;;;;;;;19.86;61.94;98713.41;5090995;28;20211;-67
2022/08/06 01:13:21;;;;;;;1.87;1.40;;;;;;;19.84;63.17;98712.72;5077123;28;20234;-68
2022/08/06 01:15:54;;;;;;;1.50;1.40;;;;;;;19.91;62.30;98721.84;5089420;28;20302;-68
2022/08/06 01:18:26;;;;;;;1.57;1.40;;;;;;;19.85;62.69;98717.06;5091051;28;20264;-68
2022/08/06 01:21:09;;;;;;;1.80;1.40;;;;;;;19.82;62.29;98714.69;5090823;28;20254;-68
2022/08/06 01:23:49;;;;;;;2.07;1.60;;;;;;;19.80;62.56;98718.53;5089553;28;20253;-68
2022/08/06 01:26:30;;;;;;;3.27;1.70;;;;;;;19.87;61.01;98717.75;5090887;28;20211;-68
2022/08/06 01:29:03;;;;;;;1.80;1.40;;;;;;;19.84;61.42;98723.44;5094138;28;20211;-68
2022/08/06 01:31:35;;;;;;;2.20;1.30;;;;;;;19.82;60.50;98729.94;5091477;28;20215;-68
2022/08/06 01:34:08;;;;;;;1.67;1.57;;;;;;;19.80;60.82;98724.72;5094563;28;20578;-68
2022/08/06 01:36:41;;;;;;;2.07;1.70;;;;;;;19.66;61.19;98717.19;5094182;28;20671;-68
2022/08/06 01:39:12;;;;;;;2.07;1.50;;;;;;;19.60;61.55;98717.78;5089795;28;20208;-68
2022/08/06 01:41:44;;;;;;;1.57;1.47;;;;;;;19.42;62.23;98724.03;5065890;28;20211;-68
2022/08/06 01:44:15;;;;;;;1.50;1.40;;;;;;;19.27;63.62;98720.16;5093818;28;20249;-68
2022/08/06 01:46:47;;;;;;;2.90;1.47;;;;;;;19.20;64.04;98719.03;5093911;28;20694;-68
2022/08/06 01:49:16;;;;;;;1.40;1.30;;;;;;;19.16;64.09;98717.63;5092646;28;20217;-68
2022/08/06 01:51:46;;;;;;;1.50;1.40;;;;;;;19.33;63.16;98719.56;5094255;28;20213;-68
2022/08/06 01:54:15;;;;;;;2.77;1.30;;;;;;;19.20;63.58;98714.53;5094209;28;20306;-68
2022/08/06 01:56:44;;;;;;;2.17;1.40;;;;;;;19.11;64.10;98712.69;5091952;28;20601;-68
2022/08/06 01:59:15;;;;;;;2.40;1.40;;;;;;;19.15;64.09;98721.28;5093148;28;20222;-69
2022/08/06 02:01:43;;;;;;;2.60;1.90;;;;;;;19.10;64.55;98729.78;5093739;28;20689;-68
2022/08/06 02:04:12;;;;;;;2.47;1.77;;;;;;;19.17;63.42;98730.88;5093842;28;20235;-68
2022/08/06 02:06:42;;;;;;;1.43;1.33;;;;;;;19.12;64.18;98726.91;5092555;28;20217;-68
2022/08/06 02:09:12;;;;;;;1.97;1.40;;;;;;;19.15;63.38;98727.47;5064435;28;20218;-68
2022/08/06 02:11:42;;;;;;;1.50;1.40;;;;;;;19.19;63.48;98739.59;5093876;28;20217;-68
2022/08/06 02:14:11;;;;;;;3.30;1.47;;;;;;;19.22;63.07;98728.66;5093694;28;20223;-68
2022/08/06 02:16:42;;;;;;;2.20;1.33;;;;;;;19.09;63.32;98728.06;5092103;28;20210;-68
2022/08/06 02:19:10;;;;;;;1.40;1.30;;;;;;;18.96;64.54;98726.69;5093323;28;20217;-68
2022/08/06 02:21:38;;;;;;;4.23;1.50;;;;;;;18.89;64.25;98728.25;5091299;28;20690;-68
2022/08/06 02:24:08;;;;;;;1.70;1.50;;;;;;;18.84;64.67;98717.94;5086756;28;20592;-68
2022/08/06 02:26:37;;;;;;;3.10;1.50;;;;;;;18.78;65.30;98723.88;5090889;28;20208;-68
2022/08/06 02:29:07;;;;;;;2.63;1.50;;;;;;;18.63;66.69;98722.63;5093372;28;20206;-68
2022/08/06 02:31:34;;;;;;;2.23;1.50;;;;;;;18.62;66.03;98722.78;5093352;28;20214;-68
2022/08/06 02:34:02;;;;;;;3.07;1.47;;;;;;;18.68;65.99;98722.19;5093460;28;20233;-70
2022/08/06 02:36:34;;;;;;;2.50;1.60;;;;;;;18.59;66.27;98723.06;5090810;28;20218;-68
2022/08/06 02:39:05;;;;;;;2.37;1.60;;;;;;;18.56;66.33;98729.53;5089940;28;20210;-68
2022/08/06 02:41:36;;;;;;;2.30;1.40;;;;;;;18.55;66.50;98733.22;5085792;28;20207;-68
2022/08/06 02:44:09;;;;;;;1.60;1.50;;;;;;;18.55;66.44;98727.00;5091339;28;20238;-68
2022/08/06 02:46:40;;;;;;;4.53;1.70;;;;;;;18.42;66.94;98729.13;5092697;28;20255;-68
2022/08/06 02:49:13;;;;;;;1.87;1.53;;;;;;;18.36;67.63;98735.03;5091104;28;20219;-71
2022/08/06 02:51:45;;;;;;;1.83;1.53;;;;;;;18.39;67.37;98737.41;5092688;28;20214;-70
2022/08/06 02:54:16;;;;;;;2.57;1.67;;;;;;;18.25;68.66;98735.97;5090742;28;20328;-71
2022/08/06 02:56:46;;;;;;;2.27;1.80;;;;;;;18.10;69.49;98741.88;5092931;28;20244;-71
2022/08/06 02:59:16;;;;;;;1.77;1.50;;;;;;;18.19;69.48;98741.03;5092695;28;20223;-71
2022/08/06 03:01:46;;;;;;;1.87;1.67;;;;;;;18.20;69.15;98738.22;5091814;28;20293;-71
2022/08/06 03:04:16;;;;;;;1.70;1.60;;;;;;;18.16;69.74;98744.81;5063281;28;20257;-71
2022/08/06 03:06:44;;;;;;;2.93;1.50;;;;;;;18.25;69.74;98741.34;5092315;28;20680;-68
2022/08/06 03:09:13;;;;;;;1.80;1.70;;;;;;;18.33;69.33;98744.19;5092703;28;20215;-68
2022/08/06 03:11:41;;;;;;;2.10;1.90;;;;;;;18.36;69.12;98751.09;5091071;28;20668;-68
2022/08/06 03:14:09;;;;;;;1.87;1.60;;;;;;;18.48;68.26;98749.97;5090631;28;20712;-68
2022/08/06 03:16:38;;;;;;;2.00;1.63;;;;;;;18.50;68.37;98745.31;5092490;28;20225;-68
2022/08/06 03:19:06;;;;;;;2.10;1.57;;;;;;;18.50;68.46;98761.38;5091965;28;20207;-68
2022/08/06 03:21:36;;;;;;;1.70;1.60;;;;;;;18.41;68.80;98757.69;5091029;28;20215;-68
2022/08/06 03:24:04;;;;;;;1.47;1.37;;;;;;;18.43;68.59;98761.09;5092329;28;20235;-68
2022/08/06 03:26:32;;;;;;;1.67;1.53;;;;;;;18.45;68.83;98756.44;5092052;28;20226;-68
2022/08/06 03:29:01;;;;;;;2.23;1.60;;;;;;;18.52;68.28;98754.91;5092013;28;20214;-68
2022/08/06 03:31:28;;;;;;;2.53;1.73;;;;;;;18.55;67.95;98751.97;5090620;28;20211;-68
2022/08/06 03:33:55;;;;;;;3.13;1.70;;;;;;;18.50;68.39;98756.88;5091898;28;20636;-68
2022/08/06 03:36:23;;;;;;;1.70;1.60;;;;;;;18.47;68.60;98756.31;5091512;28;20214;-68
2022/08/06 03:38:55;;;;;;;2.07;1.60;;;;;;;18.42;69.29;98764.75;5085682;28;20246;-68
2022/08/06 03:41:23;;;;;;;2.73;1.80;;;;;;;18.43;69.70;98765.59;5087483;28;20292;-68
2022/08/06 03:43:50;;;;;;;1.60;1.50;;;;;;;18.38;69.56;98776.72;5091794;28;20221;-68
2022/08/06 03:46:22;;;;;;;1.97;1.73;;;;;;;18.37;70.08;98775.03;5091898;28;20218;-68
2022/08/06 03:48:51;;;;;;;2.03;1.70;;;;;;;18.39;69.20;98777.56;5091790;28;20237;-68
2022/08/06 03:51:21;;;;;;;1.57;1.47;;;;;;;18.38;69.35;98783.91;5091138;28;20217;-69
2022/08/06 03:53:53;;;;;;;2.03;1.43;;;;;;;18.40;69.24;98782.78;5091948;28;20237;-69
2022/08/06 03:56:23;;;;;;;1.73;1.60;;;;;;;18.42;69.10;98782.66;5091861;28;20213;-70
2022/08/06 03:58:51;;;;;;;2.70;1.63;;;;;;;18.41;69.53;98789.81;5090484;28;20211;-68
2022/08/06 04:01:22;;;;;;;1.63;1.50;;;;;;;18.39;69.61;98791.81;5091369;28;20217;-68
2022/08/06 04:03:50;;;;;;;2.40;1.57;;;;;;;18.35;69.85;98790.38;5091649;28;20218;-68
2022/08/06 04:06:18;;;;;;;3.10;1.93;;;;;;;18.33;69.88;98787.00;5089727;28;20243;-68
2022/08/06 04:08:46;;;;;;;1.87;1.60;;;;;;;18.36;69.76;98786.72;5090373;28;20580;-68
2022/08/06 04:11:14;;;;;;;2.57;1.70;;;;;;;18.29;70.06;98784.72;5091599;28;20226;-68
2022/08/06 04:13:43;;;;;;;2.40;1.50;;;;;;;18.20;70.87;98791.75;5091219;28;20673;-68
2022/08/06 04:16:12;;;;;;;2.33;1.53;;;;;;;18.25;70.71;98796.66;5091532;28;20211;-68
2022/08/06 04:18:41;;;;;;;2.37;1.77;;;;;;;18.31;69.70;98802.38;5089951;28;20215;-68
2022/08/06 04:21:10;;;;;;;1.90;1.63;;;;;;;18.30;70.35;98803.28;5091053;28;20238;-68
2022/08/06 04:23:38;;;;;;;1.70;1.60;;;;;;;18.39;70.28;98797.16;5091465;28;20242;-69
2022/08/06 04:26:08;;;;;;;1.70;1.60;;;;;;;18.36;70.60;98796.59;5091328;28;20296;-67
2022/08/06 04:28:39;;;;;;;2.53;1.90;;;;;;;18.37;70.78;98798.28;5088917;28;20215;-69
2022/08/06 04:31:08;;;;;;;2.00;1.80;;;;;;;18.43;70.34;98808.44;5091309;28;20218;-69
2022/08/06 04:33:36;;;;;;;4.30;1.70;;;;;;;18.44;70.45;98802.09;5089351;28;20672;-68
2022/08/06 04:36:05;;;;;;;1.73;1.63;;;;;;;18.41;70.81;98800.53;5090542;28;20206;-68
2022/08/06 04:38:33;;;;;;;1.60;1.50;;;;;;;18.49;69.56;98808.75;5090853;28;20722;-68
2022/08/06 04:41:01;;;;;;;2.77;1.77;;;;;;;18.49;69.76;98808.75;5080691;28;20207;-68
2022/08/06 04:43:29;;;;;;;2.20;1.77;;;;;;;18.42;70.26;98806.75;5091345;28;20211;-68
2022/08/06 04:45:58;;;;;;;2.60;1.40;;;;;;;18.38;70.81;98816.88;5089935;28;20239;-68
2022/08/06 04:48:25;;;;;;;3.17;1.73;;;;;;;18.38;70.35;98808.84;5060987;28;20215;-68
2022/08/06 04:50:51;;;;;;;1.80;1.70;;;;;;;18.46;70.35;98818.88;5090940;28;20664;-67
2022/08/06 04:53:19;;;;;;;2.97;1.80;;;;;;;18.43;70.82;98830.69;5087645;28;20229;-68
2022/08/06 04:55:46;;;;;;;1.70;1.50;;;;;;;18.37;71.09;98825.91;5090210;28;20215;-67
2022/08/06 04:58:15;;;;;;;2.80;1.67;;;;;;;18.44;71.08;98826.19;5089396;28;20216;-67
2022/08/06 05:00:44;;;;;;;1.60;1.50;;;;;;;18.48;70.23;98828.44;5091402;28;20211;-67
2022/08/06 05:03:12;;;;;;;2.13;1.93;;;;;;;18.44;70.85;98837.75;5093403;28;20230;-67
2022/08/06 05:05:40;;;;;;;1.90;1.70;;;;;;;18.44;71.16;98835.06;5093710;28;20234;-67
2022/08/06 05:08:09;;;;;;;3.17;2.00;;;;;;;18.48;71.22;98838.31;5094797;28;20665;-68
2022/08/06 05:10:40;;;;;;;3.17;1.60;;;;;;;18.47;71.33;98836.63;5094948;28;20560;-67
2022/08/06 05:13:10;;;;;;;2.37;1.80;;;;;;;18.41;71.79;98851.38;5094995;28;20217;-67
2022/08/06 05:15:41;;;;;;;2.20;1.57;;;;;;;18.44;71.71;98847.59;5093607;28;20215;-68
2022/08/06 05:18:11;;;;;;;2.10;1.90;;;;;;;18.47;71.20;98858.88;5094664;28;20211;-67
2022/08/06 05:20:41;;;;;;;3.17;1.80;;;;;;;18.47;71.55;98856.19;5094929;28;20321;-68
2022/08/06 05:23:12;;;;;;;2.17;1.97;;;;;;;18.38;71.92;98865.06;5094489;28;20221;-68
2022/08/06 05:25:40;;;;;;;3.60;1.97;;;;;;;18.46;71.77;98861.72;5090810;28;20239;-68
2022/08/06 05:28:07;;;;;;;4.73;2.13;;;;;;;18.44;71.91;98864.50;5094768;28;20221;-68
2022/08/06 05:30:34;;;;;;;1.80;1.70;;;;;;;18.26;73.00;98866.13;5094733;28;20643;-68
2022/08/06 05:33:01;;;;;;;2.43;1.97;;;;;;;18.26;72.95;98865.25;5094413;28;20219;-67
2022/08/06 05:35:27;;;;;;;2.80;1.90;;;;;;;18.28;72.41;98868.66;5092098;28;20221;-67
2022/08/06 05:37:55;;;;;;;2.73;1.83;;;;;;;18.36;72.78;98872.34;5094271;28;20218;-67
2022/08/06 05:40:21;;;;;;;2.00;1.83;;;;;;;18.50;71.75;98869.31;5092353;28;20755;-68
2022/08/06 05:42:48;;;;;;;1.90;1.80;;;;;;;18.71;71.31;98866.53;5094299;28;20211;-68
2022/08/06 05:45:19;;;;;;;4.00;2.00;;;;;;;18.76;70.91;98875.84;5092608;28;20246;-68
2022/08/06 05:47:47;;;;;;;3.50;2.10;;;;;;;19.27;69.49;98868.41;5094326;28;20248;-67
2022/08/06 05:50:18;;;;;;;2.70;1.80;;;;;;;19.65;67.28;98870.19;5092464;28;20226;-68
2022/08/06 05:52:49;;;;;;;2.27;1.70;;;;;;;19.92;65.93;98873.78;5093353;28;20214;-68
2022/08/06 05:55:22;;;;;;;1.93;1.80;;;;;;;19.79;65.87;98877.78;5064008;28;20633;-69
2022/08/06 05:57:52;;;;;;;2.27;2.00;;;;;;;19.45;67.02;98879.28;5094166;28;20207;-67
2022/08/06 06:00:21;;;;;;;3.63;1.83;;;;;;;19.29;67.43;98879.84;5093806;28;20725;-67
2022/08/06 06:02:53;;;;;;;3.97;2.00;;;;;;;19.32;67.48;98879.56;5092427;28;20228;-66
2022/08/06 06:05:21;;;;;;;4.50;2.10;;;;;;;19.43;67.73;98870.50;5093613;28;20242;-68
2022/08/06 06:07:49;;;;;;;2.50;1.80;;;;;;;19.54;68.08;98881.06;5092106;28;20234;-68
2022/08/06 06:10:18;;;;;;;2.83;1.70;;;;;;;19.64;67.78;98880.06;5093576;28;20264;-68
2022/08/06 06:12:45;;;;;;;3.23;2.10;;;;;;;19.99;65.76;98880.25;5092274;28;20222;-67
2022/08/06 06:15:13;;;;;;;2.40;2.10;;;;;;;20.08;64.74;98887.47;5093612;28;20215;-67
2022/08/06 06:17:52;;;;;;;2.03;1.87;;;;;;;20.11;65.10;98889.84;5091857;28;20661;-68
2022/08/06 06:20:24;;;;;;;3.63;1.90;;;;;;;20.11;64.25;98880.97;5092519;28;20585;-68
2022/08/06 06:22:54;;;;;;;2.10;1.90;;;;;;;20.42;63.98;98885.88;5064443;28;20214;-69
2022/08/06 06:25:25;;;;;;;3.80;2.20;;;;;;;20.44;62.96;98888.44;5093549;28;20234;-69
2022/08/06 06:27:57;;;;;;;3.53;1.90;;;;;;;20.95;61.68;98894.94;5093139;28;20221;-69
2022/08/06 06:30:32;;;;;;;2.13;1.90;;;;;;;21.53;60.31;98896.13;5091812;28;20227;-68
2022/08/06 06:33:10;;;;;;;2.20;2.00;;;;;;;22.24;57.35;98899.53;5093405;28;20210;-69
2022/08/06 06:35:49;;;;;;;2.97;1.90;;;;;;;21.95;56.17;98909.78;5093213;28;20214;-68
2022/08/06 06:38:30;;;;;;;2.07;1.87;;;;;;;22.23;55.95;98913.97;5091650;28;20211;-68
2022/08/06 06:41:02;;;;;;;3.50;1.90;;;;;;;22.20;56.22;98909.75;5082706;28;20268;-68
2022/08/06 06:43:35;;;;;;;2.73;1.97;;;;;;;21.93;56.42;98914.47;5091277;28;20272;-68
2022/08/06 06:46:07;;;;;;;3.23;2.00;;;;;;;21.47;58.15;98914.75;5091673;28;20241;-68
2022/08/06 06:48:37;;;;;;;2.00;1.73;;;;;;;21.20;59.59;98906.75;5093143;28;20211;-68
2022/08/06 06:51:09;;;;;;;1.87;1.77;;;;;;;20.69;61.92;98917.28;5092847;28;20222;-67
2022/08/06 06:53:41;;;;;;;2.37;1.80;;;;;;;20.28;63.65;98918.63;5092796;28;20215;-67
2022/08/06 06:56:11;;;;;;;2.30;1.90;;;;;;;20.12;64.77;98922.91;5091133;28;20221;-67
2022/08/06 06:58:41;;;;;;;2.97;2.00;;;;;;;19.80;65.92;98925.94;5092842;28;20225;-67
2022/08/06 07:01:12;;;;;;;2.67;2.10;;;;;;;19.75;67.30;98924.69;5092642;28;20668;-68
2022/08/06 07:03:40;;;;;;;2.43;2.13;;;;;;;19.86;66.35;98932.53;5091568;28;20304;-68
2022/08/06 07:06:09;;;;;;;3.07;2.43;;;;;;;19.72;65.99;98931.16;5092427;28;20703;-68
2022/08/06 07:08:44;;;;;;;3.20;2.10;;;;;;;19.53;66.77;98920.47;5086057;28;20730;-68
2022/08/06 07:11:15;;;;;;;2.93;2.37;;;;;;;19.42;68.03;98927.81;5085553;28;20276;-69
2022/08/06 07:13:44;;;;;;;2.83;2.17;;;;;;;19.55;69.44;98926.53;5089871;28;20302;-68
2022/08/06 07:16:14;;;;;;;2.40;2.00;;;;;;;19.77;68.31;98928.91;5091222;28;20218;-68
2022/08/06 07:18:42;;;;;;;3.17;2.07;;;;;;;19.94;67.84;98928.13;5091119;28;20301;-68
2022/08/06 07:21:09;;;;;;;2.73;1.90;;;;;;;20.03;66.76;98929.97;5090795;28;20261;-68
2022/08/06 07:23:37;;;;;;;4.27;2.20;;;;;;;20.08;66.99;98924.19;5089309;28;20703;-69
2022/08/06 07:26:05;;;;;;;4.07;2.10;;;;;;;20.25;66.67;98928.81;5090383;28;20587;-68
2022/08/06 07:28:34;;;;;;;2.27;2.07;;;;;;;20.44;65.43;98928.72;5090379;28;20236;-68
2022/08/06 07:31:04;;;;;;;2.80;1.80;;;;;;;20.59;64.24;98930.75;5089820;28;20214;-68
2022/08/06 07:33:32;;;;;;;2.40;1.83;;;;;;;20.73;63.63;98930.25;5088350;28;20221;-68
2022/08/06 07:36:00;;;;;;;3.30;2.00;;;;;;;20.87;63.76;98929.78;5088508;28;20211;-68
2022/08/06 07:38:28;;;;;;;1.90;1.80;;;;;;;21.02;62.37;98933.66;5089940;28;20284;-68
2022/08/06 07:40:59;;;;;;;2.00;1.83;;;;;;;21.13;62.62;98941.50;5087470;28;20214;-69
2022/08/06 07:43:31;;;;;;;3.10;2.00;;;;;;;21.30;61.35;98940.66;5059424;28;20222;-66
2022/08/06 07:46:01;;;;;;;1.93;1.80;;;;;;;21.57;60.69;98943.25;5088192;28;20241;-66
2022/08/06 07:48:31;;;;;;;2.10;1.90;;;;;;;21.99;58.67;98938.91;5088883;28;20233;-65
2022/08/06 07:51:00;;;;;;;2.47;2.20;;;;;;;22.23;58.43;98947.16;5088087;28;20246;-65
2022/08/06 07:53:28;;;;;;;1.90;1.67;;;;;;;22.51;56.81;98940.63;5089607;28;20217;-67
2022/08/06 07:55:55;;;;;;;3.53;1.90;;;;;;;22.50;55.68;98933.53;5069652;28;20223;-68
2022/08/06 07:58:22;;;;;;;5.40;1.80;;;;;;;22.34;55.05;98938.81;5066485;28;20655;-65
2022/08/06 08:00:48;;;;;;;2.40;2.03;;;;;;;21.95;55.13;98940.22;5070086;28;20277;-65
2022/08/06 08:08:48;;;;;;;2.30;1.80;;;;;;;21.93;55.26;98928.78;5070716;28;20222;-70
2022/08/06 08:11:16;;;;;;;2.43;1.93;;;;;;;21.88;55.67;98933.78;5071135;28;20220;-71
2022/08/06 08:13:43;;;;;;;2.60;2.00;;;;;;;21.83;56.39;98928.03;5071029;28;20214;-64
2022/08/06 08:16:13;;;;;;;2.03;1.60;;;;;;;21.94;58.16;98927.78;5071371;28;20253;-67
2022/08/06 08:18:41;;;;;;;2.37;1.70;;;;;;;22.09;55.78;98936.97;5063201;28;20793;-65
2022/08/06 08:21:10;;;;;;;2.03;1.83;;;;;;;22.06;55.58;98923.00;5071349;28;20605;-67
2022/08/06 08:23:39;;;;;;;2.10;1.90;;;;;;;22.11;56.76;98932.28;5071237;28;20222;-66
2022/08/06 08:26:06;;;;;;;1.80;1.70;;;;;;;22.27;55.71;98921.59;5071010;28;20235;-66
2022/08/06 08:28:33;;;;;;;3.03;2.13;;;;;;;22.51;55.59;98918.22;5068493;28;20300;-66
2022/08/06 08:31:03;;;;;;;2.00;1.70;;;;;;;22.67;54.49;98913.72;5068283;28;20214;-64
2022/08/06 08:33:30;;;;;;;2.80;2.20;;;;;;;22.83;54.79;98905.72;5068288;28;20222;-67
2022/08/06 08:35:59;;;;;;;2.40;2.20;;;;;;;23.01;54.24;98917.22;5069574;28;20851;-66
2022/08/06 08:38:25;;;;;;;2.57;2.00;;;;;;;22.95;53.56;98912.47;5074224;28;20318;-68
2022/08/06 08:40:54;;;;;;;3.33;1.83;;;;;;;22.99;54.10;98913.00;5068806;28;20220;-66
2022/08/06 08:43:26;;;;;;;4.00;1.93;;;;;;;23.12;53.96;98922.31;5065821;28;20230;-65
2022/08/06 08:45:54;;;;;;;2.37;2.00;;;;;;;23.27;54.26;98917.09;5087636;28;20230;-65
2022/08/06 08:48:28;;;;;;;2.53;2.00;;;;;;;23.49;52.66;98917.31;5089985;28;20230;-65
2022/08/06 08:50:56;;;;;;;2.50;1.90;;;;;;;23.42;50.99;98921.69;5092209;28;20214;-65
2022/08/06 08:53:33;;;;;;;2.97;2.10;;;;;;;23.04;51.35;98916.88;5092114;28;20211;-67
2022/08/06 08:56:01;;;;;;;2.07;1.80;;;;;;;23.06;52.86;98920.28;5087922;28;20222;-68
2022/08/06 08:58:27;;;;;;;2.20;2.00;;;;;;;23.23;51.21;98919.28;5092285;28;20207;-67
2022/08/06 09:00:55;;;;;;;2.77;1.97;;;;;;;23.40;52.97;98918.31;5086924;28;20573;-64
2022/08/06 09:03:22;;;;;;;2.53;1.90;;;;;;;23.34;52.54;98920.84;5087032;28;20246;-67
2022/08/06 09:05:49;;;;;;;3.33;2.10;;;;;;;23.44;53.33;98926.91;5088682;28;20242;-64
2022/08/06 09:08:16;;;;;;;2.73;2.00;;;;;;;23.44;51.13;98927.78;5091712;28;20227;-67
2022/08/06 09:10:45;;;;;;;2.70;2.00;;;;;;;23.36;51.97;98927.75;5091401;28;20221;-66
2022/08/06 09:13:12;;;;;;;2.67;2.20;;;;;;;23.41;51.25;98925.41;5091748;28;20221;-68
2022/08/06 09:15:38;;;;;;;2.30;1.80;;;;;;;23.16;49.77;98926.38;5088651;28;20222;-69
2022/08/06 09:18:06;;;;;;;2.47;1.80;;;;;;;23.01;51.89;98932.53;5091566;28;20224;-69
2022/08/06 09:20:33;;;;;;;2.10;1.97;;;;;;;22.87;51.59;98936.69;5089862;28;20790;-68
2022/08/06 09:23:00;;;;;;;3.57;2.10;;;;;;;22.72;52.52;98932.97;5091622;28;20213;-68
2022/08/06 09:25:36;;;;;;;3.10;1.90;;;;;;;22.88;52.73;98930.31;5088351;28;20207;-68
2022/08/06 09:28:05;;;;;;;3.33;1.90;;;;;;;23.16;52.02;98934.47;5091520;28;20242;-68
2022/08/06 09:30:32;;;;;;;2.30;1.70;;;;;;;23.17;52.01;98940.72;5091229;28;20680;-67
2022/08/06 09:32:58;;;;;;;2.67;1.70;;;;;;;22.81;50.80;98942.75;5091253;28;20214;-67
2022/08/06 09:35:26;;;;;;;2.10;1.90;;;;;;;22.45;51.62;98949.34;5088776;28;20229;-66
2022/08/06 09:38:01;;;;;;;2.23;2.03;;;;;;;22.12;53.85;98950.09;5091448;28;20244;-67
2022/08/06 09:40:27;;;;;;;1.90;1.77;;;;;;;22.21;52.85;98954.56;5089800;28;20219;-67
2022/08/06 09:42:54;;;;;;;2.83;1.77;;;;;;;22.24;53.16;98948.84;5090101;28;20234;-67
2022/08/06 09:45:23;;;;;;;3.00;2.17;;;;;;;22.20;52.95;98947.47;5089189;28;20219;-67
2022/08/06 09:48:01;;;;;;;2.00;1.70;;;;;;;22.28;52.99;98950.22;5088626;28;20238;-67
2022/08/06 09:50:39;;;;;;;5.07;2.00;;;;;;;22.35;50.89;98935.09;5091046;28;20556;-67
2022/08/06 09:53:06;;;;;;;2.37;1.93;;;;;;;22.31;51.74;98939.13;5085503;28;20211;-67
2022/08/06 09:55:33;;;;;;;3.70;1.53;;;;;;;22.32;52.44;98929.19;5090918;28;20211;-67
2022/08/06 09:58:00;;;;;;;1.83;1.70;;;;;;;22.42;52.18;98935.28;5083784;28;20216;-67
2022/08/06 10:00:30;;;;;;;2.27;1.63;;;;;;;22.34;50.29;98933.41;5086607;28;20695;-67
2022/08/06 10:02:57;;;;;;;1.70;1.60;;;;;;;22.14;49.50;98937.31;5085095;28;20216;-67
2022/08/06 10:05:25;;;;;;;1.87;1.40;;;;;;;22.06;49.97;98939.97;5090478;28;20214;-67
2022/08/06 10:08:07;;;;;;;2.40;1.77;;;;;;;22.53;50.94;98933.22;5090292;28;20241;-67
2022/08/06 10:10:47;;;;;;;2.20;1.80;;;;;;;23.31;48.92;98930.13;5088310;28;20226;-68
2022/08/06 10:13:18;;;;;;;1.57;1.40;;;;;;;23.86;48.19;98935.69;5064437;28;20221;-67
2022/08/06 10:15:48;;;;;;;3.23;1.57;;;;;;;24.43;47.40;98930.06;5090736;28;20641;-69
2022/08/06 10:18:32;;;;;;;3.37;1.90;;;;;;;24.90;45.48;98922.81;5089873;28;20207;-68
2022/08/06 10:21:04;;;;;;;1.60;1.50;;;;;;;25.08;46.29;98934.22;5073565;28;20361;-68
2022/08/06 10:23:33;;;;;;;2.90;1.70;;;;;;;25.26;44.70;98932.09;5081892;28;20206;-66
2022/08/06 10:26:00;;;;;;;2.43;1.50;;;;;;;25.37;43.11;98942.50;5090377;28;20207;-68
2022/08/06 10:28:28;;;;;;;1.53;1.40;;;;;;;25.44;42.86;98935.38;5087404;28;20219;-68
2022/08/06 10:30:56;;;;;;;1.90;1.50;;;;;;;25.67;42.87;98938.88;5090154;28;20211;-68
2022/08/06 10:33:24;;;;;;;1.77;1.67;;;;;;;25.60;42.15;98937.94;5090102;28;20218;-68
2022/08/06 10:35:55;;;;;;;1.63;1.53;;;;;;;25.31;42.08;98926.97;5089337;28;20207;-67
2022/08/06 10:38:26;;;;;;;1.60;1.50;;;;;;;25.22;43.32;98928.03;5084952;28;20211;-67
2022/08/06 10:40:54;;;;;;;1.80;1.70;;;;;;;25.03;43.73;98927.63;5078778;28;20211;-68
2022/08/06 10:43:21;;;;;;;1.87;1.63;;;;;;;24.96;43.87;98932.91;5089727;28;20667;-68
2022/08/06 10:45:49;;;;;;;2.00;1.70;;;;;;;24.74;44.08;98930.97;5089203;28;20222;-68
2022/08/06 10:48:17;;;;;;;2.03;1.60;;;;;;;24.41;43.53;98932.09;5087713;28;20243;-67
2022/08/06 10:50:45;;;;;;;2.23;1.60;;;;;;;24.18;44.44;98939.25;5090007;28;20214;-68
2022/08/06 10:53:12;;;;;;;4.27;1.60;;;;;;;24.16;44.71;98930.47;5089584;28;20668;-68
2022/08/06 10:55:40;;;;;;;1.73;1.63;;;;;;;24.14;44.84;98927.06;5088866;28;20215;-67
2022/08/06 10:58:06;;;;;;;1.70;1.60;;;;;;;23.85;45.40;98932.16;5087528;28;20466;-67
2022/08/06 11:00:34;;;;;;;2.97;1.70;;;;;;;23.53;46.09;98937.53;5088658;28;20218;-67
2022/08/06 11:03:12;;;;;;;4.23;1.90;;;;;;;23.48;45.97;98945.28;5089167;28;20217;-67
2022/08/06 11:05:41;;;;;;;3.47;2.13;;;;;;;23.63;46.23;98927.44;5085577;28;20216;-67
2022/08/06 11:08:24;;;;;;;2.07;1.67;;;;;;;24.07;46.28;98919.84;5089056;28;20231;-67
2022/08/06 11:11:19;;;;;;;4.47;1.80;;;;;;;24.43;45.25;98924.66;5089456;28;20226;-65
2022/08/06 11:14:01;;;;;;;1.80;1.70;;;;;;;24.27;44.48;98916.56;5074750;28;20218;-68
2022/08/06 11:16:30;;;;;;;2.67;1.70;;;;;;;24.05;45.00;98914.63;5089439;28;20217;-68
2022/08/06 11:19:01;;;;;;;3.27;1.70;;;;;;;23.99;45.57;98919.84;5088690;28;20210;-68
2022/08/06 11:21:40;;;;;;;2.23;1.87;;;;;;;23.82;45.53;98919.00;5086084;28;20672;-68
2022/08/06 11:24:07;;;;;;;2.10;1.90;;;;;;;23.87;44.79;98922.06;5066520;28;20211;-67
2022/08/06 11:26:36;;;;;;;2.17;1.97;;;;;;;24.02;44.82;98914.94;5089144;28;20230;-67
2022/08/06 11:29:04;;;;;;;2.10;1.67;;;;;;;24.19;44.57;98902.28;5088428;28;20276;-68
2022/08/06 11:31:47;;;;;;;1.57;1.47;;;;;;;24.66;44.12;98905.84;5087012;28;20211;-69
2022/08/06 11:34:15;;;;;;;3.50;1.80;;;;;;;25.21;42.76;98910.09;5088402;28;20215;-67
2022/08/06 11:36:52;;;;;;;2.93;1.70;;;;;;;25.25;41.50;98895.25;5088711;28;20699;-67
2022/08/06 11:39:21;;;;;;;2.20;2.00;;;;;;;25.38;41.97;98906.31;5082907;28;20290;-69
2022/08/06 11:41:57;;;;;;;1.80;1.70;;;;;;;25.47;42.80;98913.34;5088976;28;20275;-69
2022/08/06 11:44:26;;;;;;;1.73;1.63;;;;;;;25.41;41.25;98900.53;5081288;28;20312;-68
2022/08/06 11:47:08;;;;;;;1.50;1.30;;;;;;;25.02;42.29;98899.75;5084935;28;20241;-68
2022/08/06 11:49:40;;;;;;;2.93;1.70;;;;;;;24.61;43.99;98894.69;5063795;28;20215;-68
2022/08/06 11:52:09;;;;;;;2.87;1.70;;;;;;;24.63;43.17;98898.91;5088605;28;20702;-71